Izki — V7XV2 — position and weather

sailwx.info

Track history (hours):
 
Tides and Currents Weather Stations Pressure Air Temp Water Temp Dewpoint Dewpoint Depression Visibility Wind Speed Wind Dir Waves Ship Positions

Izki

Last reported at 2017-Jul-15 12:27 UTC. Time now 2017-Sep-23 09:28 UTC.
Position N 01°19' E 103°19'.
Warning: this ship's position is months out of date.

Length 333 m; draft 11 m.

Type: Tanker. MMSI: 538004578.

Date/timePositionNaut miles runAvg speedWind from/ knotsBaromVisibWave heightAir tempDewpointWater temp
2017-Jul-15 12:27N 01°19' E 103°19'613.3
2017-Jul-15 12:00N 01°15' E 103°23'712.7
2017-Jul-15 11:30N 01°13' E 103°30'511.1
2017-Jul-15 11:00N 01°11' E 103°35'611.8
2017-Jul-15 10:30N 01°10' E 103°41'510.3
2017-Jul-15 10:00N 01°09' E 103°46'612.2
2017-Jul-15 09:30N 01°12' E 103°51'4 7.3
2017-Jul-15 09:00N 01°14' E 103°54'2 3.4
2017-Jul-15 08:24N 01°16' E 103°56'0 0.0
2017-Jul-15 07:45N 01°16' E 103°56'0 0.0
2017-Jul-15 07:30N 01°16' E 103°56'0 0.0
2017-Jul-15 06:15N 01°16' E 103°56'0 0.0
2017-Jul-15 05:54N 01°16' E 103°56'0 0.1
2017-Jul-15 05:15N 01°16' E 103°56'0 0.1
2017-Jul-15 04:51N 01°16' E 103°56'0 0.2
2017-Jul-15 04:30N 01°16' E 103°56'0 0.0
2017-Jul-15 03:42N 01°16' E 103°56'0 0.0
2017-Jul-15 03:27N 01°16' E 103°56'0 0.0
2017-Jul-15 02:56N 01°16' E 103°56'0 0.0
2017-Jul-15 02:26N 01°16' E 103°56'0 0.0
2017-Jul-15 01:50N 01°16' E 103°56'0 0.0
2017-Jul-15 01:20N 01°16' E 103°56'0 0.0
2017-Jul-15 00:53N 01°16' E 103°56'0 0.0
2017-Jul-15 00:29N 01°16' E 103°56'0 0.1
2017-Jul-14 23:56N 01°16' E 103°56'0 0.2
2017-Jul-14 23:26N 01°16' E 103°56'0 0.0
2017-Jul-14 22:53N 01°16' E 103°56'0 0.0
2017-Jul-14 22:23N 01°16' E 103°56'0 0.0
2017-Jul-14 21:53N 01°16' E 103°56'0 0.0
2017-Jul-14 21:26N 01°16' E 103°56'0 0.0
2017-Jul-14 20:11N 01°16' E 103°56'0 0.0
2017-Jul-14 19:50N 01°16' E 103°56'0 0.1
2017-Jul-14 19:29N 01°16' E 103°56'0 0.0
2017-Jul-14 18:56N 01°16' E 103°56'0 0.1
2017-Jul-14 18:26N 01°16' E 103°56'0 0.2
2017-Jul-14 17:56N 01°16' E 103°55'0 0.1
2017-Jul-14 14:14N 01°16' E 103°55'0 0.1
2017-Jul-14 13:44N 01°16' E 103°55'0 0.1
2017-Jul-14 13:20N 01°16' E 103°55'0 0.2
2017-Jul-14 12:47N 01°16' E 103°55'0 0.2
2017-Jul-14 12:29N 01°16' E 103°55'0 0.1
2017-Jul-14 11:58N 01°16' E 103°56'0 0.0
2017-Jul-14 11:25N 01°16' E 103°56'0 0.1
2017-Jul-14 10:43N 01°16' E 103°55'0 0.2
2017-Jul-14 10:28N 01°16' E 103°55'0 0.1
2017-Jul-14 09:55N 01°16' E 103°55'0 0.1
2017-Jul-14 09:28N 01°16' E 103°55'0 0.2
2017-Jul-14 08:58N 01°16' E 103°56'0 0.0
2017-Jul-14 07:16N 01°16' E 103°56'0 0.0
2017-Jul-14 03:42N 01°16' E 103°55'0 0.1
2017-Jul-14 03:12N 01°16' E 103°55'0 0.1
2017-Jul-14 01:54N 01°16' E 103°56'0 0.0
2017-Jul-14 01:24N 01°16' E 103°56'0 0.1
2017-Jul-14 00:57N 01°16' E 103°56'0 0.6
2017-Jul-14 00:29N 01°16' E 103°56'2 4.8
2017-Jul-14 00:00N 01°16' E 103°58'2 4.2
2017-Jul-13 23:29N 01°16' E 104°00'3 5.5
2017-Jul-13 23:00N 01°16' E 104°03'4 7.5
2017-Jul-13 22:29N 01°17' E 104°07'5 7.5
2017-Jul-13 21:51N 01°17' E 104°12'9 7.3
2017-Jul-13 20:40N 01°20' E 104°20'2 7.6
2017-Jul-13 20:27N 01°21' E 104°21'  
Track history (hours):
 
Tides and Currents Weather Stations Pressure Air Temp Water Temp Dewpoint Dewpoint Depression Visibility Wind Speed Wind Dir Waves Ship Positions

Izki

Last reported at 2017-Jul-15 12:27 UTC. Time now 2017-Sep-23 09:28 UTC.
Position N 01°19' E 103°19'.
Warning: this ship's position is months out of date.

Length 333 m; draft 11 m.

Type: Tanker. MMSI: 538004578.

Date/timePositionNaut miles runAvg speedWind from/ knotsBaromVisibWave heightAir tempDewpointWater temp
2017-Jul-15 12:27N 01°19' E 103°19'613.3
2017-Jul-15 12:00N 01°15' E 103°23'712.7
2017-Jul-15 11:30N 01°13' E 103°30'511.1
2017-Jul-15 11:00N 01°11' E 103°35'611.8
2017-Jul-15 10:30N 01°10' E 103°41'510.3
2017-Jul-15 10:00N 01°09' E 103°46'612.2
2017-Jul-15 09:30N 01°12' E 103°51'4 7.3
2017-Jul-15 09:00N 01°14' E 103°54'2 3.4
2017-Jul-15 08:24N 01°16' E 103°56'0 0.0
2017-Jul-15 07:45N 01°16' E 103°56'0 0.0
2017-Jul-15 07:30N 01°16' E 103°56'0 0.0
2017-Jul-15 06:15N 01°16' E 103°56'0 0.0
2017-Jul-15 05:54N 01°16' E 103°56'0 0.1
2017-Jul-15 05:15N 01°16' E 103°56'0 0.1
2017-Jul-15 04:51N 01°16' E 103°56'0 0.2
2017-Jul-15 04:30N 01°16' E 103°56'0 0.0
2017-Jul-15 03:42N 01°16' E 103°56'0 0.0
2017-Jul-15 03:27N 01°16' E 103°56'0 0.0
2017-Jul-15 02:56N 01°16' E 103°56'0 0.0
2017-Jul-15 02:26N 01°16' E 103°56'0 0.0
2017-Jul-15 01:50N 01°16' E 103°56'0 0.0
2017-Jul-15 01:20N 01°16' E 103°56'0 0.0
2017-Jul-15 00:53N 01°16' E 103°56'0 0.0
2017-Jul-15 00:29N 01°16' E 103°56'0 0.1
2017-Jul-14 23:56N 01°16' E 103°56'0 0.2
2017-Jul-14 23:26N 01°16' E 103°56'0 0.0
2017-Jul-14 22:53N 01°16' E 103°56'0 0.0
2017-Jul-14 22:23N 01°16' E 103°56'0 0.0
2017-Jul-14 21:53N 01°16' E 103°56'0 0.0
2017-Jul-14 21:26N 01°16' E 103°56'0 0.0
2017-Jul-14 20:11N 01°16' E 103°56'0 0.0
2017-Jul-14 19:50N 01°16' E 103°56'0 0.1
2017-Jul-14 19:29N 01°16' E 103°56'0 0.0
2017-Jul-14 18:56N 01°16' E 103°56'0 0.1
2017-Jul-14 18:26N 01°16' E 103°56'0 0.2
2017-Jul-14 17:56N 01°16' E 103°55'0 0.1
2017-Jul-14 14:14N 01°16' E 103°55'0 0.1
2017-Jul-14 13:44N 01°16' E 103°55'0 0.1
2017-Jul-14 13:20N 01°16' E 103°55'0 0.2
2017-Jul-14 12:47N 01°16' E 103°55'0 0.2
2017-Jul-14 12:29N 01°16' E 103°55'0 0.1
2017-Jul-14 11:58N 01°16' E 103°56'0 0.0
2017-Jul-14 11:25N 01°16' E 103°56'0 0.1
2017-Jul-14 10:43N 01°16' E 103°55'0 0.2
2017-Jul-14 10:28N 01°16' E 103°55'0 0.1
2017-Jul-14 09:55N 01°16' E 103°55'0 0.1
2017-Jul-14 09:28N 01°16' E 103°55'0 0.2
2017-Jul-14 08:58N 01°16' E 103°56'0 0.0
2017-Jul-14 07:16N 01°16' E 103°56'0 0.0
2017-Jul-14 03:42N 01°16' E 103°55'0 0.1
2017-Jul-14 03:12N 01°16' E 103°55'0 0.1
2017-Jul-14 01:54N 01°16' E 103°56'0 0.0
2017-Jul-14 01:24N 01°16' E 103°56'0 0.1
2017-Jul-14 00:57N 01°16' E 103°56'0 0.6
2017-Jul-14 00:29N 01°16' E 103°56'2 4.8
2017-Jul-14 00:00N 01°16' E 103°58'2 4.2
2017-Jul-13 23:29N 01°16' E 104°00'3 5.5
2017-Jul-13 23:00N 01°16' E 104°03'4 7.5
2017-Jul-13 22:29N 01°17' E 104°07'5 7.5
2017-Jul-13 21:51N 01°17' E 104°12'9 7.3
2017-Jul-13 20:40N 01°20' E 104°20'2 7.6
2017-Jul-13 20:27N 01°21' E 104°21'  

Dump ship's entire track history